Mount Stewart, Canada
Current Conditions -  °F | °C
As of 3:00 PM on Monday 20 Oct 2014 (Local Time) from CYYG Reporting Station
Broken Clouds Broken Clouds  
Wind Chill: 37°   Ceiling: 4500
Heat Index: 45°   Visibility: 15mi
Dew Point: 30°   Wind: 17mph
Humidity: 57%   Direction: 260°W
Pressure: 29.71"   Gusts: 30mph
Location:  46.36°N, 62.86°W
Report Text: CYYG 201800Z 26015G26KT 220V280 15SM BKN045 07/M01 A2971 RMK SC7 SLP063
Loading
Personal Weather Stations






























Interactive Weather Map
Tropical Storm Tracking
New forecast layout! Learn more

10-Day Weather Forecast

Advertisements
Track Severe Weather on mobile